sensor_id;sensor_type;location;lat;lon;timestamp;P1;durP1;ratioP1;P2;durP2;ratioP2
2111;SDS011;1062;52.538;13.400;2023-09-30T00:00:26;1.60;;;1.50;;
2111;SDS011;1062;52.538;13.400;2023-09-30T00:02:52;2.40;;;1.33;;
2111;SDS011;1062;52.538;13.400;2023-09-30T00:05:17;5.10;;;1.90;;
2111;SDS011;1062;52.538;13.400;2023-09-30T00:07:46;2.70;;;1.27;;
2111;SDS011;1062;52.538;13.400;2023-09-30T00:10:11;4.17;;;1.70;;
2111;SDS011;1062;52.538;13.400;2023-09-30T00:12:37;9.13;;;1.67;;
2111;SDS011;1062;52.538;13.400;2023-09-30T00:15:03;3.57;;;1.67;;
2111;SDS011;1062;52.538;13.400;2023-09-30T00:17:29;4.17;;;1.63;;
2111;SDS011;1062;52.538;13.400;2023-09-30T00:19:55;6.23;;;2.07;;
2111;SDS011;1062;52.538;13.400;2023-09-30T00:22:20;6.10;;;1.90;;
2111;SDS011;1062;52.538;13.400;2023-09-30T00:24:46;3.70;;;1.97;;
2111;SDS011;1062;52.538;13.400;2023-09-30T00:27:12;6.27;;;1.90;;
2111;SDS011;1062;52.538;13.400;2023-09-30T00:29:37;7.40;;;2.37;;
2111;SDS011;1062;52.538;13.400;2023-09-30T00:32:03;6.13;;;2.03;;
2111;SDS011;1062;52.538;13.400;2023-09-30T00:34:32;5.40;;;2.40;;
2111;SDS011;1062;52.538;13.400;2023-09-30T00:37:01;7.30;;;2.40;;
2111;SDS011;1062;52.538;13.400;2023-09-30T00:39:27;5.57;;;2.20;;
2111;SDS011;1062;52.538;13.400;2023-09-30T00:41:55;5.30;;;1.67;;
2111;SDS011;1062;52.538;13.400;2023-09-30T00:44:25;3.43;;;1.87;;
2111;SDS011;1062;52.538;13.400;2023-09-30T00:46:51;10.60;;;2.57;;
2111;SDS011;1062;52.538;13.400;2023-09-30T00:49:17;3.73;;;2.10;;
2111;SDS011;1062;52.538;13.400;2023-09-30T00:51:43;7.10;;;2.83;;
2111;SDS011;1062;52.538;13.400;2023-09-30T00:54:12;6.90;;;2.23;;
2111;SDS011;1062;52.538;13.400;2023-09-30T00:56:42;4.00;;;2.20;;
2111;SDS011;1062;52.538;13.400;2023-09-30T00:59:10;4.57;;;2.03;;
2111;SDS011;1062;52.538;13.400;2023-09-30T01:01:36;9.93;;;2.43;;
2111;SDS011;1062;52.538;13.400;2023-09-30T01:04:02;3.17;;;2.13;;
2111;SDS011;1062;52.538;13.400;2023-09-30T01:06:28;6.00;;;2.83;;
2111;SDS011;1062;52.538;13.400;2023-09-30T01:08:53;7.07;;;2.27;;
2111;SDS011;1062;52.538;13.400;2023-09-30T01:11:19;7.30;;;2.50;;
2111;SDS011;1062;52.538;13.400;2023-09-30T01:13:46;5.57;;;2.40;;
2111;SDS011;1062;52.538;13.400;2023-09-30T01:16:12;5.40;;;2.17;;
2111;SDS011;1062;52.538;13.400;2023-09-30T01:18:38;5.23;;;2.70;;
2111;SDS011;1062;52.538;13.400;2023-09-30T01:21:07;5.23;;;2.10;;
2111;SDS011;1062;52.538;13.400;2023-09-30T01:23:34;7.60;;;2.00;;
2111;SDS011;1062;52.538;13.400;2023-09-30T01:26:04;6.93;;;2.83;;
2111;SDS011;1062;52.538;13.400;2023-09-30T01:28:31;5.93;;;2.30;;
2111;SDS011;1062;52.538;13.400;2023-09-30T01:30:57;4.97;;;2.10;;
2111;SDS011;1062;52.538;13.400;2023-09-30T01:33:23;8.30;;;3.20;;
2111;SDS011;1062;52.538;13.400;2023-09-30T01:35:49;7.10;;;2.13;;
2111;SDS011;1062;52.538;13.400;2023-09-30T01:38:15;10.80;;;3.50;;
2111;SDS011;1062;52.538;13.400;2023-09-30T01:40:40;10.80;;;2.73;;
2111;SDS011;1062;52.538;13.400;2023-09-30T01:43:07;5.37;;;2.73;;
2111;SDS011;1062;52.538;13.400;2023-09-30T01:45:33;4.10;;;1.80;;
2111;SDS011;1062;52.538;13.400;2023-09-30T01:48:00;9.57;;;3.10;;
2111;SDS011;1062;52.538;13.400;2023-09-30T01:50:26;9.57;;;2.97;;
2111;SDS011;1062;52.538;13.400;2023-09-30T01:52:51;6.23;;;3.00;;
2111;SDS011;1062;52.538;13.400;2023-09-30T01:55:17;3.93;;;2.50;;
2111;SDS011;1062;52.538;13.400;2023-09-30T01:57:42;8.23;;;2.67;;
2111;SDS011;1062;52.538;13.400;2023-09-30T02:00:08;5.30;;;2.53;;
2111;SDS011;1062;52.538;13.400;2023-09-30T02:02:34;5.33;;;3.03;;
2111;SDS011;1062;52.538;13.400;2023-09-30T02:05:01;8.63;;;3.57;;
2111;SDS011;1062;52.538;13.400;2023-09-30T02:07:27;6.40;;;3.20;;
2111;SDS011;1062;52.538;13.400;2023-09-30T02:09:54;8.03;;;2.50;;
2111;SDS011;1062;52.538;13.400;2023-09-30T02:12:20;7.60;;;2.67;;
2111;SDS011;1062;52.538;13.400;2023-09-30T02:14:45;10.10;;;2.80;;
2111;SDS011;1062;52.538;13.400;2023-09-30T02:17:11;17.30;;;3.93;;
2111;SDS011;1062;52.538;13.400;2023-09-30T02:19:38;10.33;;;3.63;;
2111;SDS011;1062;52.538;13.400;2023-09-30T02:22:05;7.90;;;2.60;;
2111;SDS011;1062;52.538;13.400;2023-09-30T02:24:31;7.70;;;2.33;;
2111;SDS011;1062;52.538;13.400;2023-09-30T02:26:57;7.90;;;2.53;;
2111;SDS011;1062;52.538;13.400;2023-09-30T02:29:23;10.20;;;3.10;;
2111;SDS011;1062;52.538;13.400;2023-09-30T02:31:49;9.20;;;3.40;;
2111;SDS011;1062;52.538;13.400;2023-09-30T02:34:16;8.63;;;3.00;;
2111;SDS011;1062;52.538;13.400;2023-09-30T02:36:41;8.60;;;3.43;;
2111;SDS011;1062;52.538;13.400;2023-09-30T02:39:07;6.70;;;2.87;;
2111;SDS011;1062;52.538;13.400;2023-09-30T02:41:34;15.00;;;3.83;;
2111;SDS011;1062;52.538;13.400;2023-09-30T02:44:00;6.77;;;2.67;;
2111;SDS011;1062;52.538;13.400;2023-09-30T02:46:26;7.40;;;3.30;;
2111;SDS011;1062;52.538;13.400;2023-09-30T02:48:53;11.13;;;3.20;;
2111;SDS011;1062;52.538;13.400;2023-09-30T02:51:19;4.70;;;3.03;;
2111;SDS011;1062;52.538;13.400;2023-09-30T02:53:44;9.23;;;2.80;;
2111;SDS011;1062;52.538;13.400;2023-09-30T02:56:13;5.70;;;3.07;;
2111;SDS011;1062;52.538;13.400;2023-09-30T02:58:39;8.30;;;3.50;;
2111;SDS011;1062;52.538;13.400;2023-09-30T03:01:05;8.00;;;3.17;;
2111;SDS011;1062;52.538;13.400;2023-09-30T03:03:31;11.63;;;4.43;;
2111;SDS011;1062;52.538;13.400;2023-09-30T03:05:58;10.50;;;2.93;;
2111;SDS011;1062;52.538;13.400;2023-09-30T03:08:25;7.27;;;2.70;;
2111;SDS011;1062;52.538;13.400;2023-09-30T03:10:51;6.73;;;3.03;;
2111;SDS011;1062;52.538;13.400;2023-09-30T03:13:17;6.50;;;3.10;;
2111;SDS011;1062;52.538;13.400;2023-09-30T03:15:43;16.87;;;3.60;;
2111;SDS011;1062;52.538;13.400;2023-09-30T03:18:09;14.23;;;3.70;;
2111;SDS011;1062;52.538;13.400;2023-09-30T03:20:36;9.13;;;6.07;;
2111;SDS011;1062;52.538;13.400;2023-09-30T03:23:05;8.33;;;3.93;;
2111;SDS011;1062;52.538;13.400;2023-09-30T03:25:31;8.57;;;3.53;;
2111;SDS011;1062;52.538;13.400;2023-09-30T03:27:57;8.17;;;3.20;;
2111;SDS011;1062;52.538;13.400;2023-09-30T03:30:23;5.67;;;2.80;;
2111;SDS011;1062;52.538;13.400;2023-09-30T03:32:49;8.63;;;3.73;;
2111;SDS011;1062;52.538;13.400;2023-09-30T03:35:15;10.27;;;3.60;;
2111;SDS011;1062;52.538;13.400;2023-09-30T03:37:43;6.57;;;3.80;;
2111;SDS011;1062;52.538;13.400;2023-09-30T03:40:10;7.60;;;3.70;;
2111;SDS011;1062;52.538;13.400;2023-09-30T03:42:40;13.97;;;4.03;;
2111;SDS011;1062;52.538;13.400;2023-09-30T03:45:08;12.73;;;4.10;;
2111;SDS011;1062;52.538;13.400;2023-09-30T03:47:34;8.53;;;4.20;;
2111;SDS011;1062;52.538;13.400;2023-09-30T03:50:01;9.37;;;3.57;;
2111;SDS011;1062;52.538;13.400;2023-09-30T03:52:28;8.57;;;3.63;;
2111;SDS011;1062;52.538;13.400;2023-09-30T03:54:54;8.00;;;4.57;;
2111;SDS011;1062;52.538;13.400;2023-09-30T03:57:20;15.20;;;3.83;;
2111;SDS011;1062;52.538;13.400;2023-09-30T03:59:45;9.47;;;3.83;;
2111;SDS011;1062;52.538;13.400;2023-09-30T04:02:11;8.40;;;3.00;;
2111;SDS011;1062;52.538;13.400;2023-09-30T04:04:37;8.23;;;4.47;;
2111;SDS011;1062;52.538;13.400;2023-09-30T04:07:03;8.90;;;3.70;;
2111;SDS011;1062;52.538;13.400;2023-09-30T04:09:32;14.20;;;4.70;;
2111;SDS011;1062;52.538;13.400;2023-09-30T04:11:58;8.07;;;3.53;;
2111;SDS011;1062;52.538;13.400;2023-09-30T04:14:23;11.30;;;3.40;;
2111;SDS011;1062;52.538;13.400;2023-09-30T04:16:50;7.33;;;3.50;;
2111;SDS011;1062;52.538;13.400;2023-09-30T04:19:16;10.43;;;4.30;;
2111;SDS011;1062;52.538;13.400;2023-09-30T04:21:41;16.33;;;4.10;;
2111;SDS011;1062;52.538;13.400;2023-09-30T04:24:08;7.63;;;3.00;;
2111;SDS011;1062;52.538;13.400;2023-09-30T04:26:34;10.37;;;4.57;;
2111;SDS011;1062;52.538;13.400;2023-09-30T04:29:00;5.57;;;4.30;;
2111;SDS011;1062;52.538;13.400;2023-09-30T04:31:27;11.03;;;4.00;;
2111;SDS011;1062;52.538;13.400;2023-09-30T04:33:53;11.50;;;3.80;;
2111;SDS011;1062;52.538;13.400;2023-09-30T04:36:19;10.80;;;4.40;;
2111;SDS011;1062;52.538;13.400;2023-09-30T04:38:46;13.90;;;4.87;;
2111;SDS011;1062;52.538;13.400;2023-09-30T04:41:12;7.67;;;4.20;;
2111;SDS011;1062;52.538;13.400;2023-09-30T04:43:38;7.83;;;3.80;;
2111;SDS011;1062;52.538;13.400;2023-09-30T04:46:04;10.90;;;3.87;;
2111;SDS011;1062;52.538;13.400;2023-09-30T04:48:32;7.53;;;4.03;;
2111;SDS011;1062;52.538;13.400;2023-09-30T04:50:57;8.03;;;3.73;;
2111;SDS011;1062;52.538;13.400;2023-09-30T04:53:23;9.57;;;4.00;;
2111;SDS011;1062;52.538;13.400;2023-09-30T04:55:49;11.63;;;4.30;;
2111;SDS011;1062;52.538;13.400;2023-09-30T04:58:15;9.43;;;4.10;;
2111;SDS011;1062;52.538;13.400;2023-09-30T05:00:41;20.30;;;4.93;;
2111;SDS011;1062;52.538;13.400;2023-09-30T05:03:07;11.07;;;3.90;;
2111;SDS011;1062;52.538;13.400;2023-09-30T05:05:33;8.60;;;3.83;;
2111;SDS011;1062;52.538;13.400;2023-09-30T05:08:00;13.77;;;4.30;;
2111;SDS011;1062;52.538;13.400;2023-09-30T05:10:26;7.63;;;4.20;;
2111;SDS011;1062;52.538;13.400;2023-09-30T05:12:52;7.00;;;3.80;;
2111;SDS011;1062;52.538;13.400;2023-09-30T05:15:19;9.73;;;4.40;;
2111;SDS011;1062;52.538;13.400;2023-09-30T05:17:45;11.87;;;4.67;;
2111;SDS011;1062;52.538;13.400;2023-09-30T05:20:11;13.07;;;4.53;;
2111;SDS011;1062;52.538;13.400;2023-09-30T05:22:38;12.93;;;3.83;;
2111;SDS011;1062;52.538;13.400;2023-09-30T05:25:10;11.93;;;4.30;;
2111;SDS011;1062;52.538;13.400;2023-09-30T05:27:36;12.63;;;3.37;;
2111;SDS011;1062;52.538;13.400;2023-09-30T05:30:02;9.00;;;3.80;;
2111;SDS011;1062;52.538;13.400;2023-09-30T05:32:31;10.10;;;4.07;;
2111;SDS011;1062;52.538;13.400;2023-09-30T05:34:56;5.93;;;3.93;;
2111;SDS011;1062;52.538;13.400;2023-09-30T05:37:22;10.20;;;3.67;;
2111;SDS011;1062;52.538;13.400;2023-09-30T05:39:48;8.80;;;4.00;;
2111;SDS011;1062;52.538;13.400;2023-09-30T05:42:17;10.70;;;3.93;;
2111;SDS011;1062;52.538;13.400;2023-09-30T05:44:43;10.33;;;3.93;;
2111;SDS011;1062;52.538;13.400;2023-09-30T05:47:10;13.20;;;3.90;;
2111;SDS011;1062;52.538;13.400;2023-09-30T05:49:37;10.60;;;4.30;;
2111;SDS011;1062;52.538;13.400;2023-09-30T05:52:02;7.20;;;3.90;;
2111;SDS011;1062;52.538;13.400;2023-09-30T05:54:28;12.80;;;5.93;;
2111;SDS011;1062;52.538;13.400;2023-09-30T05:56:54;10.67;;;3.37;;
2111;SDS011;1062;52.538;13.400;2023-09-30T05:59:21;7.77;;;3.57;;
2111;SDS011;1062;52.538;13.400;2023-09-30T06:01:46;5.70;;;2.80;;
2111;SDS011;1062;52.538;13.400;2023-09-30T06:04:12;10.47;;;3.70;;
2111;SDS011;1062;52.538;13.400;2023-09-30T06:06:38;12.77;;;3.53;;
2111;SDS011;1062;52.538;13.400;2023-09-30T06:09:03;8.93;;;3.60;;
2111;SDS011;1062;52.538;13.400;2023-09-30T06:11:32;8.67;;;3.63;;
2111;SDS011;1062;52.538;13.400;2023-09-30T06:13:59;10.57;;;3.83;;
2111;SDS011;1062;52.538;13.400;2023-09-30T06:16:26;5.87;;;3.50;;
2111;SDS011;1062;52.538;13.400;2023-09-30T06:18:52;8.17;;;3.23;;
2111;SDS011;1062;52.538;13.400;2023-09-30T06:21:18;8.70;;;2.90;;
2111;SDS011;1062;52.538;13.400;2023-09-30T06:23:46;9.43;;;3.93;;
2111;SDS011;1062;52.538;13.400;2023-09-30T06:26:17;14.10;;;3.90;;
2111;SDS011;1062;52.538;13.400;2023-09-30T06:28:43;6.77;;;3.20;;
2111;SDS011;1062;52.538;13.400;2023-09-30T06:31:10;7.90;;;3.70;;
2111;SDS011;1062;52.538;13.400;2023-09-30T06:33:36;6.90;;;3.03;;
2111;SDS011;1062;52.538;13.400;2023-09-30T06:36:07;5.63;;;3.20;;
2111;SDS011;1062;52.538;13.400;2023-09-30T06:38:36;11.63;;;4.57;;
2111;SDS011;1062;52.538;13.400;2023-09-30T06:41:02;9.60;;;4.97;;
2111;SDS011;1062;52.538;13.400;2023-09-30T06:43:28;9.87;;;4.13;;
2111;SDS011;1062;52.538;13.400;2023-09-30T06:45:54;8.17;;;3.70;;
2111;SDS011;1062;52.538;13.400;2023-09-30T06:48:20;12.50;;;3.77;;
2111;SDS011;1062;52.538;13.400;2023-09-30T06:50:47;10.50;;;3.80;;
2111;SDS011;1062;52.538;13.400;2023-09-30T06:53:14;7.67;;;4.07;;
2111;SDS011;1062;52.538;13.400;2023-09-30T06:55:41;7.30;;;3.17;;
2111;SDS011;1062;52.538;13.400;2023-09-30T06:58:08;4.60;;;3.20;;
2111;SDS011;1062;52.538;13.400;2023-09-30T07:00:35;6.87;;;4.10;;
2111;SDS011;1062;52.538;13.400;2023-09-30T07:03:02;10.07;;;3.50;;
2111;SDS011;1062;52.538;13.400;2023-09-30T07:05:28;9.50;;;3.83;;
2111;SDS011;1062;52.538;13.400;2023-09-30T07:07:54;8.30;;;3.33;;
2111;SDS011;1062;52.538;13.400;2023-09-30T07:10:20;8.90;;;3.13;;
2111;SDS011;1062;52.538;13.400;2023-09-30T07:12:46;17.17;;;3.80;;
2111;SDS011;1062;52.538;13.400;2023-09-30T07:15:12;9.17;;;2.87;;
2111;SDS011;1062;52.538;13.400;2023-09-30T07:17:38;10.47;;;3.80;;
2111;SDS011;1062;52.538;13.400;2023-09-30T07:20:05;10.50;;;3.50;;
2111;SDS011;1062;52.538;13.400;2023-09-30T07:22:32;8.53;;;3.63;;
2111;SDS011;1062;52.538;13.400;2023-09-30T07:24:58;14.67;;;3.63;;
2111;SDS011;1062;52.538;13.400;2023-09-30T07:27:24;7.57;;;3.30;;
2111;SDS011;1062;52.538;13.400;2023-09-30T07:29:50;9.70;;;3.83;;
2111;SDS011;1062;52.538;13.400;2023-09-30T07:32:16;11.63;;;4.40;;
2111;SDS011;1062;52.538;13.400;2023-09-30T07:34:41;9.13;;;3.07;;
2111;SDS011;1062;52.538;13.400;2023-09-30T07:37:07;4.50;;;2.80;;
2111;SDS011;1062;52.538;13.400;2023-09-30T07:39:33;6.80;;;3.70;;
2111;SDS011;1062;52.538;13.400;2023-09-30T07:42:00;10.97;;;3.27;;
2111;SDS011;1062;52.538;13.400;2023-09-30T07:44:26;8.40;;;3.47;;
2111;SDS011;1062;52.538;13.400;2023-09-30T07:46:51;9.50;;;3.20;;
2111;SDS011;1062;52.538;13.400;2023-09-30T07:49:17;5.60;;;2.93;;
2111;SDS011;1062;52.538;13.400;2023-09-30T07:51:43;9.87;;;4.07;;
2111;SDS011;1062;52.538;13.400;2023-09-30T07:54:08;9.13;;;3.57;;
2111;SDS011;1062;52.538;13.400;2023-09-30T07:56:34;5.17;;;2.83;;
2111;SDS011;1062;52.538;13.400;2023-09-30T07:58:59;8.60;;;2.90;;
2111;SDS011;1062;52.538;13.400;2023-09-30T08:01:25;5.20;;;2.87;;
2111;SDS011;1062;52.538;13.400;2023-09-30T08:03:51;8.60;;;3.20;;
2111;SDS011;1062;52.538;13.400;2023-09-30T08:06:16;8.30;;;3.43;;
2111;SDS011;1062;52.538;13.400;2023-09-30T08:08:42;7.70;;;3.30;;
2111;SDS011;1062;52.538;13.400;2023-09-30T08:11:07;10.50;;;4.33;;
2111;SDS011;1062;52.538;13.400;2023-09-30T08:13:33;8.50;;;3.73;;
2111;SDS011;1062;52.538;13.400;2023-09-30T08:15:59;6.97;;;3.10;;
2111;SDS011;1062;52.538;13.400;2023-09-30T08:18:25;9.07;;;3.50;;
2111;SDS011;1062;52.538;13.400;2023-09-30T08:20:50;8.40;;;3.37;;
2111;SDS011;1062;52.538;13.400;2023-09-30T08:23:16;14.70;;;3.37;;
2111;SDS011;1062;52.538;13.400;2023-09-30T08:25:42;5.30;;;3.00;;
2111;SDS011;1062;52.538;13.400;2023-09-30T08:28:08;5.17;;;2.93;;
2111;SDS011;1062;52.538;13.400;2023-09-30T08:30:34;13.47;;;3.43;;
2111;SDS011;1062;52.538;13.400;2023-09-30T08:33:00;5.40;;;2.63;;
2111;SDS011;1062;52.538;13.400;2023-09-30T08:35:28;8.90;;;3.00;;
2111;SDS011;1062;52.538;13.400;2023-09-30T08:37:54;8.93;;;2.83;;
2111;SDS011;1062;52.538;13.400;2023-09-30T08:40:20;9.53;;;3.03;;
2111;SDS011;1062;52.538;13.400;2023-09-30T08:42:51;9.57;;;3.43;;
2111;SDS011;1062;52.538;13.400;2023-09-30T08:45:17;11.40;;;3.63;;
2111;SDS011;1062;52.538;13.400;2023-09-30T08:47:43;7.13;;;2.60;;
2111;SDS011;1062;52.538;13.400;2023-09-30T08:50:11;5.13;;;2.03;;
2111;SDS011;1062;52.538;13.400;2023-09-30T08:52:41;8.43;;;2.83;;
2111;SDS011;1062;52.538;13.400;2023-09-30T08:55:08;5.53;;;3.03;;
2111;SDS011;1062;52.538;13.400;2023-09-30T08:57:38;5.10;;;2.90;;
2111;SDS011;1062;52.538;13.400;2023-09-30T09:00:11;10.70;;;2.90;;
2111;SDS011;1062;52.538;13.400;2023-09-30T09:02:38;7.93;;;2.50;;
2111;SDS011;1062;52.538;13.400;2023-09-30T09:05:04;7.97;;;2.57;;
2111;SDS011;1062;52.538;13.400;2023-09-30T09:07:31;4.73;;;2.50;;
2111;SDS011;1062;52.538;13.400;2023-09-30T09:12:32;5.53;;;2.37;;
2111;SDS011;1062;52.538;13.400;2023-09-30T09:14:59;9.23;;;2.77;;
2111;SDS011;1062;52.538;13.400;2023-09-30T09:17:30;7.23;;;2.97;;
2111;SDS011;1062;52.538;13.400;2023-09-30T09:20:09;6.23;;;2.80;;
2111;SDS011;1062;52.538;13.400;2023-09-30T09:22:46;7.20;;;2.40;;
2111;SDS011;1062;52.538;13.400;2023-09-30T09:25:12;6.53;;;2.47;;
2111;SDS011;1062;52.538;13.400;2023-09-30T09:27:38;11.80;;;3.13;;
2111;SDS011;1062;52.538;13.400;2023-09-30T09:30:20;5.00;;;2.43;;
2111;SDS011;1062;52.538;13.400;2023-09-30T09:32:53;9.27;;;3.53;;
2111;SDS011;1062;52.538;13.400;2023-09-30T09:35:30;6.80;;;2.47;;
2111;SDS011;1062;52.538;13.400;2023-09-30T09:40:31;5.63;;;2.40;;
2111;SDS011;1062;52.538;13.400;2023-09-30T09:42:58;7.37;;;2.20;;
2111;SDS011;1062;52.538;13.400;2023-09-30T09:45:25;5.63;;;3.03;;
2111;SDS011;1062;52.538;13.400;2023-09-30T09:47:52;8.47;;;2.40;;
2111;SDS011;1062;52.538;13.400;2023-09-30T09:50:19;8.10;;;2.50;;
2111;SDS011;1062;52.538;13.400;2023-09-30T09:52:50;7.73;;;3.27;;
2111;SDS011;1062;52.538;13.400;2023-09-30T09:55:17;7.40;;;2.40;;
2111;SDS011;1062;52.538;13.400;2023-09-30T09:57:43;7.73;;;2.30;;
2111;SDS011;1062;52.538;13.400;2023-09-30T10:00:20;7.70;;;2.43;;
2111;SDS011;1062;52.538;13.400;2023-09-30T10:02:49;5.40;;;2.80;;
2111;SDS011;1062;52.538;13.400;2023-09-30T10:05:16;7.27;;;2.77;;
2111;SDS011;1062;52.538;13.400;2023-09-30T10:07:54;6.70;;;2.30;;
2111;SDS011;1062;52.538;13.400;2023-09-30T10:10:22;8.30;;;2.53;;
2111;SDS011;1062;52.538;13.400;2023-09-30T10:12:49;5.97;;;2.07;;
2111;SDS011;1062;52.538;13.400;2023-09-30T10:20:26;5.47;;;2.40;;
2111;SDS011;1062;52.538;13.400;2023-09-30T10:28:42;4.33;;;2.17;;
2111;SDS011;1062;52.538;13.400;2023-09-30T10:31:14;6.33;;;2.23;;
2111;SDS011;1062;52.538;13.400;2023-09-30T10:36:29;10.07;;;2.20;;
2111;SDS011;1062;52.538;13.400;2023-09-30T10:38:57;5.80;;;2.03;;
2111;SDS011;1062;52.538;13.400;2023-09-30T10:41:48;6.70;;;2.10;;
2111;SDS011;1062;52.538;13.400;2023-09-30T10:46:55;5.70;;;1.63;;
2111;SDS011;1062;52.538;13.400;2023-09-30T10:51:55;6.17;;;1.97;;
2111;SDS011;1062;52.538;13.400;2023-09-30T10:54:22;6.87;;;1.93;;
2111;SDS011;1062;52.538;13.400;2023-09-30T10:56:49;9.93;;;1.83;;
2111;SDS011;1062;52.538;13.400;2023-09-30T10:59:18;6.63;;;2.20;;
2111;SDS011;1062;52.538;13.400;2023-09-30T11:01:44;3.40;;;2.20;;
2111;SDS011;1062;52.538;13.400;2023-09-30T11:04:11;4.47;;;2.00;;
2111;SDS011;1062;52.538;13.400;2023-09-30T11:06:39;4.90;;;1.87;;
2111;SDS011;1062;52.538;13.400;2023-09-30T11:09:05;6.93;;;2.27;;
2111;SDS011;1062;52.538;13.400;2023-09-30T11:14:26;7.90;;;2.53;;
2111;SDS011;1062;52.538;13.400;2023-09-30T11:16:53;5.90;;;2.17;;
2111;SDS011;1062;52.538;13.400;2023-09-30T11:19:22;3.93;;;1.57;;
2111;SDS011;1062;52.538;13.400;2023-09-30T11:21:49;4.90;;;2.10;;
2111;SDS011;1062;52.538;13.400;2023-09-30T11:24:16;5.90;;;2.40;;
2111;SDS011;1062;52.538;13.400;2023-09-30T11:26:42;5.77;;;1.93;;
2111;SDS011;1062;52.538;13.400;2023-09-30T11:29:09;3.37;;;2.00;;
2111;SDS011;1062;52.538;13.400;2023-09-30T11:31:37;5.80;;;2.57;;
2111;SDS011;1062;52.538;13.400;2023-09-30T11:34:03;8.90;;;2.60;;
2111;SDS011;1062;52.538;13.400;2023-09-30T11:36:30;5.60;;;1.70;;
2111;SDS011;1062;52.538;13.400;2023-09-30T11:38:58;8.53;;;2.63;;
2111;SDS011;1062;52.538;13.400;2023-09-30T11:41:33;4.30;;;2.20;;
2111;SDS011;1062;52.538;13.400;2023-09-30T11:44:03;8.20;;;2.77;;
2111;SDS011;1062;52.538;13.400;2023-09-30T11:46:30;4.07;;;2.13;;
2111;SDS011;1062;52.538;13.400;2023-09-30T11:49:04;7.30;;;2.10;;
2111;SDS011;1062;52.538;13.400;2023-09-30T11:51:42;6.10;;;2.50;;
2111;SDS011;1062;52.538;13.400;2023-09-30T11:54:11;4.17;;;2.00;;
2111;SDS011;1062;52.538;13.400;2023-09-30T11:56:39;6.53;;;2.40;;
2111;SDS011;1062;52.538;13.400;2023-09-30T11:59:05;6.87;;;2.37;;
2111;SDS011;1062;52.538;13.400;2023-09-30T12:01:31;3.07;;;1.83;;
2111;SDS011;1062;52.538;13.400;2023-09-30T12:03:57;4.03;;;2.37;;
2111;SDS011;1062;52.538;13.400;2023-09-30T12:06:24;6.00;;;2.03;;
2111;SDS011;1062;52.538;13.400;2023-09-30T12:08:50;7.63;;;1.93;;
2111;SDS011;1062;52.538;13.400;2023-09-30T12:11:17;7.43;;;2.90;;
2111;SDS011;1062;52.538;13.400;2023-09-30T12:13:43;7.67;;;2.17;;
2111;SDS011;1062;52.538;13.400;2023-09-30T12:16:09;9.87;;;2.43;;
2111;SDS011;1062;52.538;13.400;2023-09-30T12:18:37;6.20;;;2.33;;
2111;SDS011;1062;52.538;13.400;2023-09-30T12:21:03;4.30;;;2.10;;
2111;SDS011;1062;52.538;13.400;2023-09-30T12:23:31;4.43;;;2.30;;
2111;SDS011;1062;52.538;13.400;2023-09-30T12:25:57;4.37;;;1.80;;
2111;SDS011;1062;52.538;13.400;2023-09-30T12:28:22;3.97;;;1.53;;
2111;SDS011;1062;52.538;13.400;2023-09-30T12:30:48;5.23;;;1.93;;
2111;SDS011;1062;52.538;13.400;2023-09-30T12:33:14;6.10;;;1.97;;
2111;SDS011;1062;52.538;13.400;2023-09-30T12:35:39;4.93;;;1.60;;
2111;SDS011;1062;52.538;13.400;2023-09-30T12:38:05;5.20;;;1.80;;
2111;SDS011;1062;52.538;13.400;2023-09-30T12:40:30;5.87;;;2.20;;
2111;SDS011;1062;52.538;13.400;2023-09-30T12:42:56;6.27;;;1.80;;
2111;SDS011;1062;52.538;13.400;2023-09-30T12:45:22;8.97;;;2.20;;
2111;SDS011;1062;52.538;13.400;2023-09-30T12:47:48;8.60;;;1.93;;
2111;SDS011;1062;52.538;13.400;2023-09-30T12:50:17;6.93;;;2.17;;
2111;SDS011;1062;52.538;13.400;2023-09-30T12:52:42;2.60;;;2.07;;
2111;SDS011;1062;52.538;13.400;2023-09-30T12:55:09;3.90;;;1.63;;
2111;SDS011;1062;52.538;13.400;2023-09-30T12:57:35;10.13;;;1.60;;
2111;SDS011;1062;52.538;13.400;2023-09-30T13:00:01;6.40;;;1.63;;
2111;SDS011;1062;52.538;13.400;2023-09-30T13:02:28;6.10;;;2.33;;
2111;SDS011;1062;52.538;13.400;2023-09-30T13:04:53;6.47;;;1.50;;
2111;SDS011;1062;52.538;13.400;2023-09-30T13:07:19;5.70;;;1.77;;
2111;SDS011;1062;52.538;13.400;2023-09-30T13:09:45;4.97;;;2.00;;
2111;SDS011;1062;52.538;13.400;2023-09-30T13:12:11;3.57;;;1.90;;
2111;SDS011;1062;52.538;13.400;2023-09-30T13:14:37;4.90;;;2.07;;
2111;SDS011;1062;52.538;13.400;2023-09-30T13:17:03;3.90;;;1.63;;
2111;SDS011;1062;52.538;13.400;2023-09-30T13:19:29;5.47;;;1.80;;
2111;SDS011;1062;52.538;13.400;2023-09-30T13:21:55;3.40;;;1.80;;
2111;SDS011;1062;52.538;13.400;2023-09-30T13:24:21;4.30;;;1.73;;
2111;SDS011;1062;52.538;13.400;2023-09-30T13:26:47;5.47;;;2.00;;
2111;SDS011;1062;52.538;13.400;2023-09-30T13:29:15;4.03;;;1.90;;
2111;SDS011;1062;52.538;13.400;2023-09-30T13:31:41;3.30;;;1.57;;
2111;SDS011;1062;52.538;13.400;2023-09-30T13:34:08;4.63;;;2.10;;
2111;SDS011;1062;52.538;13.400;2023-09-30T13:36:34;4.30;;;1.93;;
2111;SDS011;1062;52.538;13.400;2023-09-30T13:38:59;6.53;;;1.73;;
2111;SDS011;1062;52.538;13.400;2023-09-30T13:41:26;4.43;;;1.47;;
2111;SDS011;1062;52.538;13.400;2023-09-30T13:43:52;5.60;;;1.97;;
2111;SDS011;1062;52.538;13.400;2023-09-30T13:46:18;5.77;;;1.60;;
2111;SDS011;1062;52.538;13.400;2023-09-30T13:48:43;6.63;;;1.40;;
2111;SDS011;1062;52.538;13.400;2023-09-30T13:51:09;2.90;;;1.90;;
2111;SDS011;1062;52.538;13.400;2023-09-30T13:53:38;2.10;;;1.30;;
2111;SDS011;1062;52.538;13.400;2023-09-30T13:56:03;6.80;;;1.80;;
2111;SDS011;1062;52.538;13.400;2023-09-30T13:58:31;5.10;;;2.07;;
2111;SDS011;1062;52.538;13.400;2023-09-30T14:00:57;6.30;;;1.77;;
2111;SDS011;1062;52.538;13.400;2023-09-30T14:03:22;6.47;;;1.83;;
2111;SDS011;1062;52.538;13.400;2023-09-30T14:05:51;3.90;;;1.50;;
2111;SDS011;1062;52.538;13.400;2023-09-30T14:08:18;3.67;;;1.60;;
2111;SDS011;1062;52.538;13.400;2023-09-30T14:10:43;2.03;;;1.70;;
2111;SDS011;1062;52.538;13.400;2023-09-30T14:13:10;4.30;;;1.97;;
2111;SDS011;1062;52.538;13.400;2023-09-30T14:15:36;5.87;;;1.80;;
2111;SDS011;1062;52.538;13.400;2023-09-30T14:18:02;5.03;;;1.60;;
2111;SDS011;1062;52.538;13.400;2023-09-30T14:20:28;3.07;;;1.40;;
2111;SDS011;1062;52.538;13.400;2023-09-30T14:22:54;3.93;;;1.67;;
2111;SDS011;1062;52.538;13.400;2023-09-30T14:25:22;4.00;;;1.57;;
2111;SDS011;1062;52.538;13.400;2023-09-30T14:27:48;3.80;;;1.20;;
2111;SDS011;1062;52.538;13.400;2023-09-30T14:30:14;3.60;;;1.77;;
2111;SDS011;1062;52.538;13.400;2023-09-30T14:32:40;3.43;;;1.50;;
2111;SDS011;1062;52.538;13.400;2023-09-30T14:35:07;4.67;;;1.77;;
2111;SDS011;1062;52.538;13.400;2023-09-30T14:37:34;4.27;;;1.77;;
2111;SDS011;1062;52.538;13.400;2023-09-30T14:40:00;3.73;;;1.80;;
2111;SDS011;1062;52.538;13.400;2023-09-30T14:42:30;4.23;;;1.60;;
2111;SDS011;1062;52.538;13.400;2023-09-30T14:44:56;6.90;;;1.30;;
2111;SDS011;1062;52.538;13.400;2023-09-30T14:47:21;5.27;;;1.60;;
2111;SDS011;1062;52.538;13.400;2023-09-30T14:49:47;4.57;;;2.10;;
2111;SDS011;1062;52.538;13.400;2023-09-30T14:52:13;5.33;;;1.93;;
2111;SDS011;1062;52.538;13.400;2023-09-30T14:54:40;8.07;;;1.27;;
2111;SDS011;1062;52.538;13.400;2023-09-30T14:57:06;3.30;;;1.57;;
2111;SDS011;1062;52.538;13.400;2023-09-30T14:59:33;3.10;;;2.20;;
2111;SDS011;1062;52.538;13.400;2023-09-30T15:01:59;3.90;;;1.60;;
2111;SDS011;1062;52.538;13.400;2023-09-30T15:04:25;7.63;;;2.10;;
2111;SDS011;1062;52.538;13.400;2023-09-30T15:06:50;7.90;;;2.13;;
2111;SDS011;1062;52.538;13.400;2023-09-30T15:09:16;2.57;;;1.40;;
2111;SDS011;1062;52.538;13.400;2023-09-30T15:11:43;5.87;;;1.50;;
2111;SDS011;1062;52.538;13.400;2023-09-30T15:14:08;7.67;;;2.27;;
2111;SDS011;1062;52.538;13.400;2023-09-30T15:16:34;4.47;;;1.73;;
2111;SDS011;1062;52.538;13.400;2023-09-30T15:19:00;5.10;;;2.13;;
2111;SDS011;1062;52.538;13.400;2023-09-30T15:21:26;3.70;;;1.40;;